Time;durP1;ratioP1;P1;durP2;ratioP2;P2;SDS_P1;SDS_P2;PMS_P1;PMS_P2;Temp;Humidity;BMP_temperature;BMP_pressure;BME280_temperature;BME280_humidity;BME280_pressure;Samples;Min_cycle;Max_cycle;Signal;HPM_P1;HPM_P2
2022/07/12 00:00:29;;;;;;;1.77;1.08;;;;;;;17.93;71.78;97111.34;5043459;28;20203;-51
2022/07/12 00:02:55;;;;;;;1.40;1.27;;;;;;;17.95;71.79;97117.38;5042674;28;20540;-52
2022/07/12 00:05:22;;;;;;;1.40;1.00;;;;;;;17.90;72.15;97112.53;5042654;28;20211;-51
2022/07/12 00:07:56;;;;;;;0.90;0.90;;;;;;;17.90;71.79;97112.53;5041898;28;20227;-53
2022/07/12 00:10:22;;;;;;;1.13;1.13;;;;;;;17.87;72.59;97110.22;5042152;28;20621;-52
2022/07/12 00:12:49;;;;;;;1.10;1.08;;;;;;;17.80;73.73;97106.59;5041900;28;20207;-52
2022/07/12 00:15:17;;;;;;;1.38;1.05;;;;;;;17.74;74.12;97107.31;5042491;28;20247;-51
2022/07/12 00:17:43;;;;;;;2.17;1.10;;;;;;;17.69;73.81;97117.69;5041911;28;20209;-52
2022/07/12 00:20:11;;;;;;;1.00;1.00;;;;;;;17.68;73.98;97113.34;5042146;28;20623;-52
2022/07/12 00:22:38;;;;;;;1.00;1.00;;;;;;;17.67;73.58;97114.38;5041571;28;20517;-52
2022/07/12 00:25:09;;;;;;;1.38;1.27;;;;;;;17.75;73.10;97106.28;5040628;28;20211;-52
2022/07/12 00:27:36;;;;;;;1.23;1.13;;;;;;;17.74;72.99;97104.63;5041703;28;20676;-52
2022/07/12 00:30:02;;;;;;;2.58;1.23;;;;;;;17.71;73.90;97114.84;5042225;28;20200;-52
2022/07/12 00:32:29;;;;;;;1.90;1.48;;;;;;;17.76;73.02;97107.13;5041783;28;20204;-52
2022/07/12 00:34:56;;;;;;;1.75;1.25;;;;;;;17.75;72.69;97106.28;5041933;28;20324;-52
2022/07/12 00:37:22;;;;;;;0.95;0.95;;;;;;;17.79;72.79;97112.94;5040077;28;20204;-52
2022/07/12 00:39:49;;;;;;;2.92;1.00;;;;;;;17.70;73.96;97119.38;5041915;28;20296;-54
2022/07/12 00:42:17;;;;;;;1.45;1.27;;;;;;;17.66;73.60;97112.69;5041838;28;20220;-52
2022/07/12 00:44:44;;;;;;;2.75;1.10;;;;;;;17.70;73.20;97114.03;5041847;28;20235;-52
2022/07/12 00:47:22;;;;;;;1.48;0.85;;;;;;;17.68;73.40;97117.84;5042287;28;20635;-52
2022/07/12 00:49:49;;;;;;;1.13;1.13;;;;;;;17.69;73.24;97112.34;5041134;28;20199;-52
2022/07/12 00:52:18;;;;;;;1.38;1.30;;;;;;;17.61;74.03;97125.75;5041940;28;20211;-53
2022/07/12 00:54:45;;;;;;;1.63;1.30;;;;;;;17.62;74.01;97127.44;5040540;28;20226;-52
2022/07/12 00:57:14;;;;;;;1.40;1.40;;;;;;;17.60;73.61;97124.09;5041866;28;20216;-52
2022/07/12 00:59:42;;;;;;;1.27;1.20;;;;;;;17.61;73.82;97124.91;5041632;28;20200;-52
2022/07/12 01:02:09;;;;;;;1.83;1.38;;;;;;;17.63;73.71;97125.59;5042046;28;20509;-52
2022/07/12 01:04:38;;;;;;;1.42;1.33;;;;;;;17.59;73.26;97122.44;5040943;28;20203;-51
2022/07/12 01:07:05;;;;;;;1.30;1.20;;;;;;;17.63;73.45;97128.25;5041148;28;20540;-52
2022/07/12 01:09:32;;;;;;;1.20;1.10;;;;;;;17.53;74.53;97128.47;5042784;28;20662;-52
2022/07/12 01:11:59;;;;;;;1.10;1.10;;;;;;;17.56;73.96;97117.44;5045405;28;20243;-51
2022/07/12 01:14:27;;;;;;;1.80;1.30;;;;;;;17.51;75.78;97118.91;5044244;28;20255;-52
2022/07/12 01:16:57;;;;;;;1.73;1.63;;;;;;;17.50;74.65;97118.06;5053838;28;20219;-52
2022/07/12 01:19:24;;;;;;;1.52;1.42;;;;;;;17.47;74.54;97125.63;5051061;28;20625;-52
2022/07/12 01:21:52;;;;;;;1.40;1.30;;;;;;;17.35;75.63;97111.81;5049213;28;20239;-52
2022/07/12 01:24:20;;;;;;;1.15;1.15;;;;;;;17.28;76.44;97118.88;5045075;28;20289;-52
2022/07/12 01:26:47;;;;;;;1.55;1.45;;;;;;;17.27;76.19;97114.53;5045288;28;20620;-52
2022/07/12 01:29:15;;;;;;;1.50;1.30;;;;;;;17.33;75.08;97113.81;5043607;28;20203;-53
2022/07/12 01:31:43;;;;;;;1.30;1.20;;;;;;;17.16;77.46;97120.25;5045708;28;20246;-52
2022/07/12 01:34:09;;;;;;;1.60;1.27;;;;;;;17.18;76.80;97112.91;5043555;28;20203;-52
2022/07/12 01:36:37;;;;;;;1.45;1.35;;;;;;;16.97;78.19;97121.44;5045522;28;20258;-51
2022/07/12 01:39:04;;;;;;;1.63;1.52;;;;;;;16.92;79.43;97126.50;5044447;28;20199;-52
2022/07/12 01:41:37;;;;;;;1.35;1.25;;;;;;;16.81;80.26;97126.84;5045752;28;20226;-51
2022/07/12 01:44:03;;;;;;;1.80;1.65;;;;;;;17.00;77.63;97126.47;5044507;28;20650;-53
2022/07/12 01:46:30;;;;;;;2.35;1.40;;;;;;;16.89;79.25;97122.34;5045351;28;20604;-52
2022/07/12 01:48:59;;;;;;;2.90;1.38;;;;;;;16.81;80.39;97121.50;5043575;28;20214;-52
2022/07/12 01:51:25;;;;;;;1.80;1.70;;;;;;;16.75;79.98;97125.69;5044718;28;20200;-53
2022/07/12 01:53:53;;;;;;;1.87;1.40;;;;;;;16.78;80.38;97128.03;5044229;28;20232;-51
2022/07/12 01:56:22;;;;;;;1.87;1.57;;;;;;;16.73;80.51;97129.53;5042521;28;20224;-53
2022/07/12 01:58:52;;;;;;;1.52;1.40;;;;;;;16.64;81.41;97126.03;5044091;28;20222;-52
2022/07/12 02:01:19;;;;;;;2.22;1.60;;;;;;;16.68;80.87;97124.72;5044216;28;20203;-51
2022/07/12 02:03:47;;;;;;;1.50;1.40;;;;;;;16.76;79.91;97132.69;5043738;28;20270;-51
2022/07/12 02:06:15;;;;;;;1.95;1.48;;;;;;;16.69;81.08;97129.03;5043660;28;20632;-52
2022/07/12 02:08:43;;;;;;;2.45;1.83;;;;;;;16.59;82.29;97133.72;5044164;28;20218;-52
2022/07/12 02:11:10;;;;;;;3.03;1.77;;;;;;;16.67;80.31;97133.72;5042508;28;20735;-51
2022/07/12 02:13:36;;;;;;;1.83;1.73;;;;;;;16.59;81.30;97136.38;5044304;28;20227;-52
2022/07/12 02:16:06;;;;;;;2.47;1.50;;;;;;;16.53;82.02;97130.84;5043676;28;20224;-53
2022/07/12 02:18:34;;;;;;;1.93;1.83;;;;;;;16.44;83.45;97130.84;5044542;28;20237;-51
2022/07/12 02:21:03;;;;;;;1.83;1.43;;;;;;;16.50;82.69;97131.19;5042838;28;20203;-52
2022/07/12 02:23:30;;;;;;;1.70;1.60;;;;;;;16.38;83.94;97122.69;5044170;28;20203;-52
2022/07/12 02:25:56;;;;;;;1.60;1.50;;;;;;;16.30;84.71;97122.69;5043640;28;20237;-52
2022/07/12 02:28:23;;;;;;;1.70;1.60;;;;;;;16.36;83.68;97130.03;5044488;28;20199;-53
2022/07/12 02:30:51;;;;;;;2.30;2.10;;;;;;;16.30;84.30;97125.34;5043357;28;20227;-52
2022/07/12 02:33:19;;;;;;;1.80;1.70;;;;;;;16.30;84.13;97122.69;5042911;28;20235;-52
2022/07/12 02:35:46;;;;;;;3.00;1.97;;;;;;;16.33;83.45;97122.38;5043152;28;20263;-52
2022/07/12 02:38:17;;;;;;;1.80;1.70;;;;;;;16.31;84.10;97127.84;5043737;28;20196;-52
2022/07/12 02:40:54;;;;;;;1.90;1.80;;;;;;;16.31;84.18;97129.69;5042694;28;20203;-53
2022/07/12 02:43:20;;;;;;;2.03;1.93;;;;;;;16.29;84.16;97126.38;5043584;28;20211;-51
2022/07/12 02:45:47;;;;;;;1.80;1.70;;;;;;;16.30;84.07;97125.34;5043121;28;20231;-52
2022/07/12 02:48:14;;;;;;;1.87;1.77;;;;;;;16.27;84.41;97131.03;5043899;28;20216;-51
2022/07/12 02:50:43;;;;;;;2.30;1.80;;;;;;;16.26;83.82;97132.03;5043076;28;20207;-51
2022/07/12 02:53:11;;;;;;;1.80;1.70;;;;;;;16.31;83.26;97132.34;5044978;28;20246;-52
2022/07/12 02:55:39;;;;;;;1.87;1.77;;;;;;;16.27;83.53;97129.19;5043429;28;20223;-53
2022/07/12 02:58:06;;;;;;;1.97;1.80;;;;;;;16.25;84.02;97135.72;5043519;28;20200;-52
2022/07/12 03:00:34;;;;;;;1.70;1.60;;;;;;;16.25;84.24;97135.72;5043016;28;20206;-51
2022/07/12 03:03:01;;;;;;;1.77;1.67;;;;;;;16.21;85.05;97142.38;5042903;28;20208;-53
2022/07/12 03:05:28;;;;;;;1.67;1.57;;;;;;;16.17;85.48;97155.22;5043357;28;20195;-52
2022/07/12 03:07:56;;;;;;;1.90;1.80;;;;;;;16.14;85.37;97144.03;5042867;28;20234;-52
2022/07/12 03:10:22;;;;;;;2.40;2.00;;;;;;;16.08;85.50;97144.69;5042994;28;20196;-52
2022/07/12 03:12:49;;;;;;;2.00;1.90;;;;;;;16.16;84.79;97148.19;5043893;28;20239;-53
2022/07/12 03:15:16;;;;;;;2.00;1.90;;;;;;;16.16;84.04;97136.69;5043197;28;20710;-51
2022/07/12 03:17:42;;;;;;;1.60;1.50;;;;;;;16.08;85.38;97139.38;5043379;28;20211;-52
2022/07/12 03:20:11;;;;;;;2.23;2.00;;;;;;;16.03;86.33;97144.34;5042528;28;20698;-53
2022/07/12 03:22:40;;;;;;;2.07;1.87;;;;;;;15.94;87.00;97138.19;5044450;28;20920;-52
2022/07/12 03:25:10;;;;;;;2.20;2.10;;;;;;;15.99;85.87;97141.16;5043479;28;20583;-51
2022/07/12 03:27:36;;;;;;;2.20;2.10;;;;;;;16.11;84.48;97149.69;5062347;28;20203;-52
2022/07/12 03:30:04;;;;;;;2.07;1.97;;;;;;;16.09;84.08;97151.69;5052941;28;20199;-51
2022/07/12 03:32:33;;;;;;;2.30;1.80;;;;;;;16.01;86.16;97149.03;5048166;28;20276;-51
2022/07/12 03:35:01;;;;;;;2.30;2.17;;;;;;;16.00;85.96;97148.19;5042694;28;20230;-52
2022/07/12 03:37:29;;;;;;;2.80;2.27;;;;;;;15.97;86.33;97153.84;5042716;28;20227;-51
2022/07/12 03:39:56;;;;;;;2.00;1.90;;;;;;;16.02;85.31;97150.66;5042262;28;20583;-51
2022/07/12 03:42:24;;;;;;;2.30;2.20;;;;;;;15.97;86.28;97163.69;5042163;28;20215;-52
2022/07/12 03:44:54;;;;;;;2.17;2.07;;;;;;;15.93;86.66;97158.69;5041889;28;20238;-53
2022/07/12 03:47:21;;;;;;;1.93;1.77;;;;;;;15.97;85.15;97164.53;5042626;28;20203;-52
2022/07/12 03:49:49;;;;;;;2.50;2.30;;;;;;;15.93;86.66;97164.00;5042668;28;20227;-52
2022/07/12 03:52:18;;;;;;;2.30;2.00;;;;;;;15.88;87.81;97166.31;5043509;28;20235;-52
2022/07/12 03:54:45;;;;;;;2.53;2.37;;;;;;;15.91;86.88;97171.31;5042198;28;20605;-52
2022/07/12 03:57:14;;;;;;;2.73;2.53;;;;;;;15.96;85.66;97173.53;5041334;28;20671;-51
2022/07/12 03:59:42;;;;;;;2.57;2.33;;;;;;;15.93;87.36;97165.84;5041827;28;20645;-52
2022/07/12 04:02:11;;;;;;;3.50;2.40;;;;;;;15.90;88.22;97169.69;5042425;28;20211;-52
2022/07/12 04:04:38;;;;;;;2.37;2.27;;;;;;;15.96;88.33;97178.00;5041919;28;20223;-51
2022/07/12 04:07:05;;;;;;;2.20;2.10;;;;;;;16.04;86.58;97181.53;5041901;28;20200;-51
2022/07/12 04:09:32;;;;;;;2.00;1.90;;;;;;;15.99;89.30;97177.69;5039996;28;20211;-51
2022/07/12 04:11:59;;;;;;;2.13;2.03;;;;;;;16.05;87.77;97179.72;5042154;28;20659;-53
2022/07/12 04:14:25;;;;;;;4.07;2.23;;;;;;;16.05;89.09;97180.53;5042106;28;20207;-52
2022/07/12 04:16:56;;;;;;;4.83;4.40;;;;;;;16.08;88.84;97184.72;5043294;28;20235;-51
2022/07/12 04:19:23;;;;;;;2.93;2.70;;;;;;;16.11;89.59;97181.72;5041737;28;20194;-52
2022/07/12 04:21:50;;;;;;;2.77;2.57;;;;;;;16.11;89.86;97173.72;5043014;28;20320;-52
2022/07/12 04:24:17;;;;;;;2.30;2.20;;;;;;;16.23;89.37;97183.06;5041542;28;20235;-51
2022/07/12 04:26:46;;;;;;;2.43;2.33;;;;;;;16.43;88.68;97181.75;5041939;28;20245;-52
2022/07/12 04:29:13;;;;;;;2.50;2.30;;;;;;;16.50;88.08;97166.75;5054455;28;20207;-52
2022/07/12 04:31:39;;;;;;;3.27;2.20;;;;;;;16.79;85.64;97167.06;5052477;28;20195;-51
2022/07/12 04:34:07;;;;;;;3.33;1.93;;;;;;;16.92;86.67;97172.75;5048426;28;20239;-52
2022/07/12 04:36:34;;;;;;;3.00;2.47;;;;;;;17.16;85.52;97173.69;5042029;28;20238;-52
2022/07/12 04:39:01;;;;;;;2.83;2.23;;;;;;;17.42;82.89;97174.28;5053666;28;20208;-52
2022/07/12 04:41:27;;;;;;;2.88;2.40;;;;;;;17.50;82.76;97176.91;5053563;28;20196;-51
2022/07/12 04:43:54;;;;;;;3.47;2.35;;;;;;;17.39;82.73;97174.63;5059286;28;20199;-51
2022/07/12 04:46:21;;;;;;;2.47;2.28;;;;;;;17.29;82.92;97173.97;5048636;28;20266;-52
2022/07/12 04:48:50;;;;;;;2.63;2.53;;;;;;;17.25;83.64;97173.47;5044174;28;20227;-52
2022/07/12 04:51:18;;;;;;;2.63;2.42;;;;;;;17.35;82.74;97178.66;5045650;28;20208;-51
2022/07/12 04:53:44;;;;;;;2.67;2.45;;;;;;;17.26;82.77;97179.66;5045574;28;20203;-51
2022/07/12 04:56:11;;;;;;;3.25;2.90;;;;;;;17.18;83.16;97187.75;5045423;28;20310;-52
2022/07/12 04:58:38;;;;;;;2.70;2.50;;;;;;;17.22;83.07;97189.03;5045521;28;20199;-51
2022/07/12 05:01:08;;;;;;;5.05;2.63;;;;;;;17.27;84.12;97195.56;5046258;28;20243;-51
2022/07/12 05:03:35;;;;;;;2.57;2.37;;;;;;;17.50;84.00;97203.66;5046133;28;21389;-51
2022/07/12 05:06:02;;;;;;;2.60;2.40;;;;;;;17.68;82.05;97196.25;5045242;28;20207;-52
2022/07/12 05:08:30;;;;;;;3.13;2.80;;;;;;;17.71;81.60;97200.47;5045731;28;20295;-52
2022/07/12 05:10:57;;;;;;;5.95;2.65;;;;;;;17.61;82.16;97194.44;5045490;28;20200;-51
2022/07/12 05:13:23;;;;;;;2.67;2.58;;;;;;;17.56;82.59;97195.00;5045389;28;20215;-51
2022/07/12 05:15:50;;;;;;;2.85;2.60;;;;;;;17.49;82.66;97196.66;5044941;28;20270;-52
2022/07/12 05:18:21;;;;;;;2.85;2.65;;;;;;;17.68;82.07;97188.25;5044689;28;20199;-53
2022/07/12 05:20:49;;;;;;;3.03;2.70;;;;;;;17.92;76.38;97187.31;5043630;28;20208;-52
2022/07/12 05:23:16;;;;;;;2.85;2.65;;;;;;;18.24;75.93;97197.84;5045016;28;20556;-52
2022/07/12 05:25:47;;;;;;;4.63;2.95;;;;;;;18.56;72.90;97196.81;5044872;28;20195;-52
2022/07/12 05:28:18;;;;;;;3.00;2.72;;;;;;;18.80;72.81;97199.28;5044785;28;21321;-53
2022/07/12 05:30:45;;;;;;;3.63;2.58;;;;;;;19.11;71.02;97201.00;5044152;28;20195;-52
2022/07/12 05:33:13;;;;;;;3.05;2.75;;;;;;;19.32;72.46;97211.84;5044772;28;20214;-52
2022/07/12 05:35:40;;;;;;;2.90;2.70;;;;;;;19.64;70.44;97216.88;5044735;28;20294;-53
2022/07/12 05:38:07;;;;;;;2.38;2.20;;;;;;;19.80;67.20;97210.50;5045401;28;20199;-53
2022/07/12 05:40:34;;;;;;;2.83;2.63;;;;;;;19.92;66.01;97205.47;5059260;28;20204;-52
2022/07/12 05:43:02;;;;;;;2.95;2.75;;;;;;;20.21;67.61;97224.22;5055257;28;20203;-53
2022/07/12 05:45:28;;;;;;;3.65;2.47;;;;;;;20.39;65.84;97219.28;5050283;28;20235;-53
2022/07/12 05:47:57;;;;;;;2.70;2.50;;;;;;;20.62;65.59;97225.28;5045720;28;20254;-53
2022/07/12 05:50:25;;;;;;;7.90;3.00;;;;;;;20.85;64.49;97225.94;5044431;28;20242;-53
2022/07/12 05:55:36;;;;;;;3.78;2.40;;;;;;;20.85;63.21;97220.56;5044211;28;20210;-52
2022/07/12 05:58:04;;;;;;;3.80;2.42;;;;;;;21.12;63.90;97216.28;5043831;28;21518;-53
2022/07/12 06:00:32;;;;;;;2.50;2.30;;;;;;;21.23;62.51;97217.59;5044414;28;20195;-52
2022/07/12 06:02:58;;;;;;;5.82;2.50;;;;;;;21.16;62.17;97222.09;5044722;28;20218;-51
2022/07/12 06:05:25;;;;;;;4.13;2.70;;;;;;;21.36;62.72;97216.88;5043363;28;20686;-53
2022/07/12 06:07:51;;;;;;;9.18;3.45;;;;;;;21.67;61.87;97220.81;5043734;28;20224;-52
2022/07/12 06:10:18;;;;;;;3.63;2.72;;;;;;;21.80;61.77;97220.03;5045490;28;20242;-54
2022/07/12 06:12:45;;;;;;;3.42;2.58;;;;;;;22.05;60.60;97225.78;5044489;28;20196;-52
2022/07/12 06:15:13;;;;;;;3.00;2.60;;;;;;;22.20;60.70;97226.47;5044405;28;20204;-53
2022/07/12 06:17:40;;;;;;;4.22;2.83;;;;;;;22.38;59.69;97221.34;5043468;28;20297;-53
2022/07/12 06:20:07;;;;;;;2.90;2.50;;;;;;;22.20;59.76;97227.31;5044048;28;20296;-52
2022/07/12 06:22:34;;;;;;;3.10;2.80;;;;;;;22.54;60.55;97226.34;5043766;28;20204;-52
2022/07/12 06:25:01;;;;;;;5.53;2.63;;;;;;;22.40;60.16;97226.53;5044172;28;20295;-53
2022/07/12 06:27:27;;;;;;;2.28;2.03;;;;;;;22.67;60.15;97229.09;5043515;28;20196;-52
2022/07/12 06:29:54;;;;;;;10.27;4.82;;;;;;;22.82;58.83;97231.63;5043569;28;20205;-52
2022/07/12 06:32:22;;;;;;;12.68;3.58;;;;;;;22.95;58.07;97231.66;5043562;28;20199;-52
2022/07/12 06:34:49;;;;;;;4.43;2.63;;;;;;;22.88;57.27;97235.38;5042826;28;20238;-52
2022/07/12 06:37:15;;;;;;;4.22;2.80;;;;;;;22.97;58.88;97228.75;5044282;28;20243;-52
2022/07/12 06:39:43;;;;;;;2.80;2.60;;;;;;;23.33;56.99;97237.25;5043886;28;20207;-52
2022/07/12 06:42:10;;;;;;;4.38;2.65;;;;;;;23.61;55.68;97245.97;5044127;28;20242;-53
2022/07/12 06:44:37;;;;;;;3.20;3.00;;;;;;;23.63;54.32;97241.19;5044004;28;20206;-55
2022/07/12 06:47:04;;;;;;;5.00;2.70;;;;;;;23.59;56.42;97248.06;5042920;28;20223;-53
2022/07/12 06:49:31;;;;;;;2.90;2.70;;;;;;;23.44;55.78;97244.75;5043244;28;20239;-52
2022/07/12 06:51:58;;;;;;;11.60;3.33;;;;;;;23.54;56.19;97247.88;5043617;28;20265;-52
2022/07/12 06:54:26;;;;;;;2.90;2.70;;;;;;;23.67;55.68;97247.84;5044032;28;20235;-52
2022/07/12 06:56:52;;;;;;;3.28;2.97;;;;;;;23.91;54.05;97246.34;5042458;28;20907;-53
2022/07/12 06:59:19;;;;;;;4.75;2.67;;;;;;;24.00;54.38;97245.06;5043282;28;20195;-53
2022/07/12 07:01:47;;;;;;;2.35;2.17;;;;;;;23.86;54.51;97251.53;5043893;28;20214;-52
2022/07/12 07:04:14;;;;;;;2.75;2.55;;;;;;;23.96;55.75;97253.78;5045070;28;20223;-54
2022/07/12 07:06:42;;;;;;;3.78;2.55;;;;;;;23.90;53.98;97251.94;5043973;28;20231;-53
2022/07/12 07:09:11;;;;;;;2.63;2.42;;;;;;;24.08;54.73;97249.41;5046506;28;20199;-53
2022/07/12 07:11:37;;;;;;;3.35;2.60;;;;;;;24.23;54.84;97244.59;5046761;28;20632;-53
2022/07/12 07:14:04;;;;;;;3.17;2.55;;;;;;;24.45;52.64;97237.00;5048047;28;20199;-53
2022/07/12 07:16:31;;;;;;;3.72;2.63;;;;;;;24.37;54.75;97245.38;5060438;28;20219;-52
2022/07/12 07:18:58;;;;;;;3.13;2.80;;;;;;;24.51;52.51;97247.81;5067069;28;20191;-53
2022/07/12 07:21:24;;;;;;;2.78;2.42;;;;;;;24.60;53.05;97248.38;5069451;28;20220;-52
2022/07/12 07:23:52;;;;;;;3.03;2.13;;;;;;;24.66;53.45;97237.50;5066486;28;20202;-53
2022/07/12 07:26:19;;;;;;;2.90;2.42;;;;;;;24.83;51.85;97235.16;5064919;28;20203;-55
2022/07/12 07:31:30;;;;;;;2.60;2.40;;;;;;;24.87;53.49;97240.97;5063171;28;20203;-53
2022/07/12 07:33:57;;;;;;;2.42;2.22;;;;;;;24.89;53.26;97253.22;5072997;28;20181;-53
2022/07/12 07:36:25;;;;;;;4.05;2.50;;;;;;;25.04;50.26;97253.75;5074999;28;20195;-53
2022/07/12 07:38:53;;;;;;;2.60;2.40;;;;;;;25.01;53.55;97259.56;5057971;28;20302;-54
2022/07/12 07:41:20;;;;;;;4.15;2.20;;;;;;;25.33;51.25;97254.16;5044134;28;20202;-54
2022/07/12 07:43:47;;;;;;;3.17;2.20;;;;;;;25.52;49.84;97243.16;5042138;28;20228;-53
2022/07/12 07:46:13;;;;;;;2.95;2.65;;;;;;;25.32;50.87;97247.91;5042791;28;20686;-52
2022/07/12 07:48:40;;;;;;;3.53;2.05;;;;;;;25.22;51.64;97253.00;5042439;28;20235;-53
2022/07/12 07:51:06;;;;;;;3.03;2.45;;;;;;;25.31;49.79;97257.06;5043971;28;20215;-53
2022/07/12 07:53:33;;;;;;;4.38;2.30;;;;;;;25.06;52.54;97251.63;5043530;28;20224;-53
2022/07/12 07:56:01;;;;;;;2.13;2.03;;;;;;;25.45;51.64;97247.78;5046021;28;20202;-53
2022/07/12 07:58:28;;;;;;;3.80;1.77;;;;;;;25.58;50.01;97253.09;5044115;28;20281;-54
2022/07/12 08:00:55;;;;;;;2.10;1.92;;;;;;;25.84;50.75;97249.31;5041493;28;20246;-53
2022/07/12 08:03:25;;;;;;;4.75;2.58;;;;;;;25.77;50.86;97255.84;5042599;28;20230;-53
2022/07/12 08:05:51;;;;;;;6.35;2.47;;;;;;;25.80;50.19;97255.41;5042531;28;20214;-52
2022/07/12 08:08:18;;;;;;;3.25;2.00;;;;;;;25.91;50.91;97257.38;5041988;28;20222;-54
2022/07/12 08:10:47;;;;;;;2.75;2.28;;;;;;;25.92;49.35;97259.03;5042014;28;21261;-53
2022/07/12 08:13:16;;;;;;;3.03;2.33;;;;;;;26.13;50.35;97254.00;5041303;28;20219;-54
2022/07/12 08:15:45;;;;;;;2.38;1.75;;;;;;;26.18;51.35;97251.47;5042177;28;20216;-53
2022/07/12 08:18:12;;;;;;;1.90;1.80;;;;;;;26.30;50.09;97251.53;5042316;28;20704;-54
2022/07/12 08:20:39;;;;;;;6.22;2.75;;;;;;;26.49;48.18;97255.91;5045826;28;20235;-54
2022/07/12 08:23:06;;;;;;;3.53;2.20;;;;;;;26.31;49.13;97255.91;5045583;28;20229;-54
2022/07/12 08:25:33;;;;;;;1.55;1.45;;;;;;;26.48;48.61;97264.25;5045575;28;20203;-52
2022/07/12 08:27:59;;;;;;;6.95;2.38;;;;;;;26.74;48.67;97253.06;5046572;28;20215;-53
2022/07/12 08:30:27;;;;;;;6.38;2.05;;;;;;;26.54;46.87;97253.31;5046249;28;20555;-52
2022/07/12 08:32:54;;;;;;;2.45;2.25;;;;;;;26.64;48.77;97255.50;5047206;28;20208;-57
2022/07/12 08:35:21;;;;;;;2.65;1.80;;;;;;;26.92;48.18;97242.19;5046154;28;20303;-54
2022/07/12 08:37:48;;;;;;;9.05;2.70;;;;;;;26.85;46.96;97251.47;5044836;28;20247;-53
2022/07/12 08:40:14;;;;;;;3.10;2.08;;;;;;;26.68;46.32;97257.50;5045530;28;20234;-53
2022/07/12 08:42:42;;;;;;;2.35;1.98;;;;;;;26.51;45.85;97258.38;5045337;28;20203;-53
2022/07/12 08:45:10;;;;;;;2.80;1.75;;;;;;;26.35;47.97;97253.56;5044927;28;20286;-53
2022/07/12 08:47:38;;;;;;;2.08;1.90;;;;;;;26.53;48.49;97248.97;5046077;28;20196;-54
2022/07/12 08:50:14;;;;;;;3.60;1.95;;;;;;;26.56;47.78;97256.63;5045429;28;20206;-53
2022/07/12 08:52:42;;;;;;;3.35;1.90;;;;;;;26.64;48.72;97255.50;5045806;28;20288;-53
2022/07/12 08:55:20;;;;;;;3.28;1.70;;;;;;;27.06;47.61;97251.78;5045536;28;20268;-53
2022/07/12 08:57:47;;;;;;;2.50;1.73;;;;;;;27.07;46.44;97252.59;5044989;28;20223;-53
2022/07/12 09:00:14;;;;;;;1.70;1.60;;;;;;;27.13;47.17;97247.06;5045443;28;20235;-54
2022/07/12 09:02:52;;;;;;;2.95;1.80;;;;;;;27.34;45.67;97256.56;5045213;28;20199;-53
2022/07/12 09:05:20;;;;;;;1.67;1.58;;;;;;;27.45;43.77;97263.09;5045646;28;20187;-54
2022/07/12 09:07:47;;;;;;;1.63;1.52;;;;;;;27.33;44.09;97263.03;5044767;28;20203;-55
2022/07/12 09:10:15;;;;;;;2.83;2.10;;;;;;;27.37;45.36;97256.09;5045200;28;20260;-53
2022/07/12 09:12:42;;;;;;;1.63;1.50;;;;;;;27.57;46.02;97256.59;5044335;28;20628;-54
2022/07/12 09:15:17;;;;;;;2.05;1.73;;;;;;;27.67;43.65;97254.13;5044670;28;20210;-54
2022/07/12 09:17:57;;;;;;;3.70;1.85;;;;;;;27.55;45.33;97247.03;5044774;28;20219;-53
2022/07/12 09:20:25;;;;;;;4.75;1.80;;;;;;;27.75;46.11;97257.53;5044598;28;20694;-54
2022/07/12 09:22:53;;;;;;;2.20;1.27;;;;;;;27.90;44.34;97257.91;5043668;28;20221;-53
2022/07/12 09:25:20;;;;;;;2.97;1.83;;;;;;;27.79;45.67;97253.28;5045250;28;20207;-52
2022/07/12 09:27:53;;;;;;;3.63;1.85;;;;;;;27.98;44.62;97257.56;5044072;28;20275;-54
2022/07/12 09:30:20;;;;;;;3.65;1.70;;;;;;;28.10;42.89;97261.94;5044278;28;20228;-53
2022/07/12 09:38:25;;;;;;;1.83;1.70;;;;;;;28.47;41.22;97265.16;5044242;28;20666;-54
2022/07/12 09:40:51;;;;;;;2.17;1.95;;;;;;;28.45;41.71;97269.22;5044066;28;20226;-52
2022/07/12 09:43:19;;;;;;;2.60;1.40;;;;;;;28.34;42.99;97265.41;5044373;28;20226;-54
2022/07/12 09:45:47;;;;;;;2.08;1.63;;;;;;;28.53;39.74;97261.47;5043610;28;20239;-55
2022/07/12 09:48:15;;;;;;;1.42;1.33;;;;;;;28.41;41.18;97260.66;5045021;28;20627;-54
2022/07/12 09:50:46;;;;;;;1.88;1.60;;;;;;;28.48;40.11;97264.13;5045158;28;20218;-54
2022/07/12 09:53:21;;;;;;;1.27;1.17;;;;;;;28.50;40.44;97270.13;5044474;28;20204;-55
2022/07/12 09:55:50;;;;;;;2.50;1.27;;;;;;;28.85;41.23;97259.13;5044183;28;20187;-53
2022/07/12 09:58:23;;;;;;;2.38;1.48;;;;;;;28.65;40.40;97261.44;5044189;28;20224;-54
2022/07/12 10:00:51;;;;;;;1.50;1.40;;;;;;;28.55;39.27;97251.19;5047857;28;20640;-54
2022/07/12 10:03:21;;;;;;;3.75;1.40;;;;;;;28.59;40.35;97255.06;5050406;28;20200;-53
2022/07/12 10:05:51;;;;;;;2.05;1.20;;;;;;;28.84;39.47;97262.13;5047810;28;20649;-53
2022/07/12 10:08:19;;;;;;;2.05;1.20;;;;;;;28.71;39.44;97262.38;5044271;28;20253;-53
2022/07/12 10:10:45;;;;;;;1.55;1.45;;;;;;;28.94;39.02;97267.75;5044251;28;20585;-54
2022/07/12 10:13:12;;;;;;;2.75;1.60;;;;;;;28.81;38.88;97268.03;5043024;28;20688;-53
2022/07/12 10:15:39;;;;;;;1.40;1.30;;;;;;;29.12;39.00;97273.00;5043703;28;20231;-53
2022/07/12 10:18:06;;;;;;;1.52;1.40;;;;;;;29.20;39.30;97258.13;5042864;28;20557;-53
2022/07/12 10:20:33;;;;;;;1.15;1.15;;;;;;;29.45;37.77;97262.16;5043613;28;20231;-54
2022/07/12 10:23:35;;;;;;;7.07;1.50;;;;;;;29.57;36.38;97276.53;5043102;28;20199;-52
2022/07/12 10:26:03;;;;;;;1.25;1.13;;;;;;;29.45;36.68;97272.22;5044288;28;20226;-54
2022/07/12 10:28:57;;;;;;;1.38;1.23;;;;;;;29.46;36.33;97269.25;5043757;28;20592;-54
2022/07/12 10:31:25;;;;;;;1.67;1.25;;;;;;;29.59;37.44;97273.53;5042905;28;20237;-54
2022/07/12 10:34:01;;;;;;;2.65;1.13;;;;;;;29.44;37.40;97271.38;5043660;28;20329;-54
2022/07/12 10:36:28;;;;;;;1.10;1.10;;;;;;;29.60;37.01;97272.47;5043773;28;20188;-54
2022/07/12 10:39:12;;;;;;;1.80;1.15;;;;;;;29.63;35.79;97267.34;5043474;28;20222;-53
2022/07/12 10:41:39;;;;;;;2.10;1.35;;;;;;;29.45;33.62;97272.22;5044096;28;20219;-53
2022/07/12 10:44:06;;;;;;;2.28;1.52;;;;;;;29.45;36.40;97273.03;5043620;28;20202;-53
2022/07/12 10:46:35;;;;;;;1.10;1.10;;;;;;;29.65;37.82;97272.56;5043755;28;20683;-54
2022/07/12 10:49:26;;;;;;;1.75;1.13;;;;;;;29.85;35.23;97272.06;5043501;28;20207;-53
2022/07/12 10:52:13;;;;;;;0.80;0.80;;;;;;;29.72;35.49;97277.84;5042920;28;20237;-53
2022/07/12 10:54:43;;;;;;;1.95;1.17;;;;;;;29.73;34.08;97269.41;5042972;28;21254;-54
2022/07/12 10:57:10;;;;;;;1.52;1.00;;;;;;;29.95;34.60;97269.50;5042524;28;20702;-54
2022/07/12 10:59:37;;;;;;;1.20;1.10;;;;;;;29.94;33.55;97276.00;5043207;28;20200;-54
2022/07/12 11:02:05;;;;;;;1.50;1.17;;;;;;;29.89;33.31;97267.78;5042977;28;20199;-53
2022/07/12 11:04:33;;;;;;;1.20;1.05;;;;;;;29.95;34.89;97266.75;5042988;28;20261;-53
2022/07/12 11:07:02;;;;;;;0.90;0.90;;;;;;;29.98;34.64;97260.81;5042925;28;20203;-54
2022/07/12 11:09:29;;;;;;;1.13;1.13;;;;;;;29.92;34.89;97261.81;5042784;28;20196;-53
2022/07/12 11:11:57;;;;;;;1.60;1.10;;;;;;;30.04;32.61;97265.28;5042722;28;20195;-55
2022/07/12 11:14:24;;;;;;;1.92;0.93;;;;;;;30.08;32.94;97260.94;5042601;28;20207;-54
2022/07/12 11:16:52;;;;;;;1.08;0.70;;;;;;;30.15;31.69;97252.59;5043756;28;20218;-53
2022/07/12 11:19:23;;;;;;;1.40;1.20;;;;;;;30.10;33.01;97253.34;5042961;28;20336;-52
2022/07/12 11:21:55;;;;;;;1.20;1.17;;;;;;;30.21;31.78;97249.69;5042198;28;20197;-54
2022/07/12 11:24:23;;;;;;;1.45;1.05;;;;;;;30.14;32.40;97249.03;5042047;28;20642;-54
2022/07/12 11:26:50;;;;;;;1.52;1.40;;;;;;;29.99;33.30;97246.09;5042803;28;20214;-53
2022/07/12 11:29:18;;;;;;;1.70;1.23;;;;;;;30.23;32.19;97238.50;5042459;28;20210;-54
2022/07/12 11:31:45;;;;;;;1.00;0.90;;;;;;;30.20;33.74;97242.56;5042372;28;20292;-53
2022/07/12 11:34:20;;;;;;;0.93;0.93;;;;;;;30.16;32.91;97241.41;5041235;28;20199;-54
2022/07/12 11:36:47;;;;;;;1.40;0.80;;;;;;;30.36;34.42;97233.47;5042418;28;20198;-53
2022/07/12 11:39:13;;;;;;;1.15;1.05;;;;;;;29.96;33.39;97227.50;5042616;28;20228;-53
2022/07/12 11:41:40;;;;;;;1.10;0.93;;;;;;;30.16;32.88;97225.03;5042693;28;20220;-54
2022/07/12 11:44:07;;;;;;;1.98;1.20;;;;;;;30.26;32.79;97236.09;5042343;28;20196;-54
2022/07/12 11:46:35;;;;;;;1.17;1.08;;;;;;;30.09;29.62;97229.88;5042388;28;20275;-54
2022/07/12 11:49:02;;;;;;;1.15;0.90;;;;;;;30.18;32.36;97231.09;5041534;28;20195;-53